sensor_id;sensor_type;location;lat;lon;timestamp;pressure;altitude;pressure_sealevel;temperature;humidity
56719;BME280;42597;40.636;0.278;2023-02-21T00:01:50;97949.84;;;13.23;46.61
56719;BME280;42597;40.636;0.278;2023-02-21T00:04:34;97941.97;;;12.45;47.65
56719;BME280;42597;40.636;0.278;2023-02-21T00:07:18;97942.38;;;13.20;49.63
56719;BME280;42597;40.636;0.278;2023-02-21T00:10:03;97949.44;;;12.60;46.01
56719;BME280;42597;40.636;0.278;2023-02-21T00:12:48;97939.72;;;12.22;47.10
56719;BME280;42597;40.636;0.278;2023-02-21T00:15:32;97930.00;;;12.82;47.17
56719;BME280;42597;40.636;0.278;2023-02-21T00:18:15;97924.56;;;12.58;46.46
56719;BME280;42597;40.636;0.278;2023-02-21T00:20:59;97918.28;;;13.59;47.85
56719;BME280;42597;40.636;0.278;2023-02-21T00:23:43;97915.00;;;13.25;49.71
56719;BME280;42597;40.636;0.278;2023-02-21T00:26:27;97915.16;;;13.04;45.68
56719;BME280;42597;40.636;0.278;2023-02-21T00:29:11;97913.44;;;13.12;48.94
56719;BME280;42597;40.636;0.278;2023-02-21T00:31:55;97905.56;;;13.47;46.64
56719;BME280;42597;40.636;0.278;2023-02-21T00:34:39;97895.78;;;13.74;48.77
56719;BME280;42597;40.636;0.278;2023-02-21T00:37:23;97896.41;;;12.99;44.53
56719;BME280;42597;40.636;0.278;2023-02-21T00:40:11;97890.84;;;13.08;46.81
56719;BME280;42597;40.636;0.278;2023-02-21T00:42:55;97894.41;;;13.37;50.21
56719;BME280;42597;40.636;0.278;2023-02-21T00:45:39;97894.44;;;13.12;45.69
56719;BME280;42597;40.636;0.278;2023-02-21T00:48:23;97899.56;;;12.89;45.36
56719;BME280;42597;40.636;0.278;2023-02-21T00:51:07;97900.34;;;13.02;48.96
56719;BME280;42597;40.636;0.278;2023-02-21T00:53:51;97893.03;;;13.43;49.58
56719;BME280;42597;40.636;0.278;2023-02-21T00:56:36;97888.25;;;13.12;44.97
56719;BME280;42597;40.636;0.278;2023-02-21T00:59:20;97887.91;;;13.01;46.63
56719;BME280;42597;40.636;0.278;2023-02-21T01:02:04;97879.09;;;13.44;47.36
56719;BME280;42597;40.636;0.278;2023-02-21T01:04:48;97881.75;;;13.28;48.35
56719;BME280;42597;40.636;0.278;2023-02-21T01:07:32;97887.75;;;12.69;46.00
56719;BME280;42597;40.636;0.278;2023-02-21T01:10:17;97883.16;;;12.98;45.66
56719;BME280;42597;40.636;0.278;2023-02-21T01:13:02;97878.63;;;13.42;46.96
56719;BME280;42597;40.636;0.278;2023-02-21T01:15:46;97881.28;;;12.86;44.14
56719;BME280;42597;40.636;0.278;2023-02-21T01:18:30;97876.66;;;12.87;46.02
56719;BME280;42597;40.636;0.278;2023-02-21T01:21:16;97876.56;;;12.83;47.30
56719;BME280;42597;40.636;0.278;2023-02-21T01:24:00;97877.53;;;13.03;46.47
56719;BME280;42597;40.636;0.278;2023-02-21T01:26:44;97879.41;;;12.74;45.25
56719;BME280;42597;40.636;0.278;2023-02-21T01:29:28;97878.19;;;12.35;44.57
56719;BME280;42597;40.636;0.278;2023-02-21T01:32:12;97874.66;;;12.71;44.90
56719;BME280;42597;40.636;0.278;2023-02-21T01:34:56;97872.03;;;11.89;44.32
56719;BME280;42597;40.636;0.278;2023-02-21T01:37:40;97873.44;;;12.32;48.29
56719;BME280;42597;40.636;0.278;2023-02-21T01:40:25;97870.72;;;12.32;44.30
56719;BME280;42597;40.636;0.278;2023-02-21T01:43:18;97876.50;;;12.30;44.58
56719;BME280;42597;40.636;0.278;2023-02-21T01:46:03;97866.63;;;13.15;48.48
56719;BME280;42597;40.636;0.278;2023-02-21T01:48:48;97875.59;;;12.51;45.79
56719;BME280;42597;40.636;0.278;2023-02-21T01:51:37;97867.22;;;12.31;44.38
56719;BME280;42597;40.636;0.278;2023-02-21T01:54:23;97865.53;;;12.39;47.56
56719;BME280;42597;40.636;0.278;2023-02-21T01:57:09;97866.06;;;12.69;44.60
56719;BME280;42597;40.636;0.278;2023-02-21T01:59:55;97862.25;;;12.33;47.05
56719;BME280;42597;40.636;0.278;2023-02-21T02:03:08;97852.78;;;12.40;44.61
56719;BME280;42597;40.636;0.278;2023-02-21T02:06:04;97840.53;;;13.23;48.03
56719;BME280;42597;40.636;0.278;2023-02-21T02:08:49;97838.22;;;12.84;45.88
56719;BME280;42597;40.636;0.278;2023-02-21T02:17:39;97838.66;;;12.09;45.12
56719;BME280;42597;40.636;0.278;2023-02-21T02:39:45;97807.63;;;12.84;46.75
56719;BME280;42597;40.636;0.278;2023-02-21T02:43:09;97797.34;;;12.00;45.11
56719;BME280;42597;40.636;0.278;2023-02-21T02:45:18;97796.78;;;12.31;48.76
56719;BME280;42597;40.636;0.278;2023-02-21T02:47:50;97789.75;;;12.55;45.77
56719;BME280;42597;40.636;0.278;2023-02-21T02:50:17;97778.28;;;12.62;46.47
56719;BME280;42597;40.636;0.278;2023-02-21T02:52:52;97770.03;;;13.26;44.29
56719;BME280;42597;40.636;0.278;2023-02-21T02:56:00;97759.06;;;12.79;47.21
56719;BME280;42597;40.636;0.278;2023-02-21T02:58:27;97770.91;;;12.46;45.43
56719;BME280;42597;40.636;0.278;2023-02-21T03:04:43;97766.25;;;13.15;50.51
56719;BME280;42597;40.636;0.278;2023-02-21T03:10:12;97760.47;;;11.83;45.03
56719;BME280;42597;40.636;0.278;2023-02-21T03:15:37;97756.56;;;11.60;45.29
56719;BME280;42597;40.636;0.278;2023-02-21T03:18:11;97745.56;;;11.90;47.68
56719;BME280;42597;40.636;0.278;2023-02-21T03:20:42;97738.66;;;12.57;48.42
56719;BME280;42597;40.636;0.278;2023-02-21T03:23:12;97729.13;;;12.75;50.25
56719;BME280;42597;40.636;0.278;2023-02-21T03:25:40;97731.31;;;12.17;44.98
56719;BME280;42597;40.636;0.278;2023-02-21T03:28:07;97726.94;;;12.53;48.86
56719;BME280;42597;40.636;0.278;2023-02-21T03:30:33;97719.72;;;11.92;45.13
56719;BME280;42597;40.636;0.278;2023-02-21T03:32:59;97713.94;;;11.57;44.65
56719;BME280;42597;40.636;0.278;2023-02-21T03:35:28;97712.13;;;11.73;48.46
56719;BME280;42597;40.636;0.278;2023-02-21T03:37:54;97703.59;;;11.71;44.65
56719;BME280;42597;40.636;0.278;2023-02-21T03:40:23;97708.53;;;11.57;44.72
56719;BME280;42597;40.636;0.278;2023-02-21T03:42:50;97700.50;;;12.09;49.62
56719;BME280;42597;40.636;0.278;2023-02-21T03:45:16;97705.16;;;12.49;51.30
56719;BME280;42597;40.636;0.278;2023-02-21T03:47:42;97705.16;;;11.72;45.82
56719;BME280;42597;40.636;0.278;2023-02-21T03:50:08;97707.88;;;11.84;45.55
56719;BME280;42597;40.636;0.278;2023-02-21T03:52:33;97722.94;;;11.24;46.00
56719;BME280;42597;40.636;0.278;2023-02-21T03:54:59;97737.00;;;10.84;47.29
56719;BME280;42597;40.636;0.278;2023-02-21T03:57:25;97744.56;;;10.58;56.84
56719;BME280;42597;40.636;0.278;2023-02-21T03:59:51;97738.50;;;10.61;60.64
56719;BME280;42597;40.636;0.278;2023-02-21T04:02:17;97745.38;;;10.37;63.64
56719;BME280;42597;40.636;0.278;2023-02-21T04:04:43;97742.66;;;10.37;64.66
56719;BME280;42597;40.636;0.278;2023-02-21T04:07:10;97745.63;;;10.45;64.96
56719;BME280;42597;40.636;0.278;2023-02-21T04:09:36;97740.88;;;10.42;65.79
56719;BME280;42597;40.636;0.278;2023-02-21T04:12:03;97741.66;;;10.63;64.99
56719;BME280;42597;40.636;0.278;2023-02-21T04:14:29;97745.53;;;10.74;65.39
56719;BME280;42597;40.636;0.278;2023-02-21T04:16:54;97756.16;;;10.79;62.88
56719;BME280;42597;40.636;0.278;2023-02-21T04:19:20;97761.03;;;10.65;61.02
56719;BME280;42597;40.636;0.278;2023-02-21T04:21:45;97763.06;;;10.68;59.17
56719;BME280;42597;40.636;0.278;2023-02-21T04:24:11;97762.22;;;10.76;58.44
56719;BME280;42597;40.636;0.278;2023-02-21T04:26:37;97759.50;;;10.76;58.25
56719;BME280;42597;40.636;0.278;2023-02-21T04:29:02;97761.81;;;10.86;58.40
56719;BME280;42597;40.636;0.278;2023-02-21T04:31:28;97765.78;;;10.68;59.62
56719;BME280;42597;40.636;0.278;2023-02-21T04:33:54;97767.91;;;10.62;59.73
56719;BME280;42597;40.636;0.278;2023-02-21T04:36:19;97765.78;;;10.68;59.84
56719;BME280;42597;40.636;0.278;2023-02-21T04:38:45;97765.13;;;10.50;60.37
56719;BME280;42597;40.636;0.278;2023-02-21T04:41:11;97770.66;;;10.54;60.55
56719;BME280;42597;40.636;0.278;2023-02-21T04:43:36;97771.06;;;10.44;61.19
56719;BME280;42597;40.636;0.278;2023-02-21T04:46:02;97768.41;;;10.35;61.55
56719;BME280;42597;40.636;0.278;2023-02-21T04:48:28;97765.13;;;10.50;59.60
56719;BME280;42597;40.636;0.278;2023-02-21T04:50:53;97758.91;;;10.29;60.44
56719;BME280;42597;40.636;0.278;2023-02-21T04:53:19;97754.41;;;10.96;59.32
56719;BME280;42597;40.636;0.278;2023-02-21T04:55:44;97753.06;;;11.47;59.80
56719;BME280;42597;40.636;0.278;2023-02-21T04:58:10;97744.66;;;11.98;58.82
56719;BME280;42597;40.636;0.278;2023-02-21T05:00:35;97744.19;;;12.08;58.60
56719;BME280;42597;40.636;0.278;2023-02-21T05:03:01;97749.63;;;11.83;56.13
56719;BME280;42597;40.636;0.278;2023-02-21T05:05:26;97734.63;;;11.16;56.81
56719;BME280;42597;40.636;0.278;2023-02-21T05:07:52;97733.75;;;10.58;57.88
56719;BME280;42597;40.636;0.278;2023-02-21T05:10:17;97733.09;;;11.27;58.33
56719;BME280;42597;40.636;0.278;2023-02-21T05:12:43;97725.25;;;11.71;57.94
56719;BME280;42597;40.636;0.278;2023-02-21T05:15:10;97725.00;;;11.64;52.81
56719;BME280;42597;40.636;0.278;2023-02-21T05:17:36;97726.44;;;12.35;55.62
56719;BME280;42597;40.636;0.278;2023-02-21T05:20:03;97730.00;;;12.79;54.31
56719;BME280;42597;40.636;0.278;2023-02-21T05:22:28;97719.66;;;13.13;53.66
56719;BME280;42597;40.636;0.278;2023-02-21T05:24:54;97714.13;;;12.66;52.02
56719;BME280;42597;40.636;0.278;2023-02-21T05:27:20;97703.25;;;12.38;53.62
56719;BME280;42597;40.636;0.278;2023-02-21T05:29:48;97715.97;;;12.09;51.59
56719;BME280;42597;40.636;0.278;2023-02-21T05:32:15;97704.56;;;12.84;52.61
56719;BME280;42597;40.636;0.278;2023-02-21T05:34:41;97695.16;;;12.25;54.64
56719;BME280;42597;40.636;0.278;2023-02-21T05:37:10;97697.97;;;13.13;53.10
56719;BME280;42597;40.636;0.278;2023-02-21T05:39:35;97698.91;;;13.05;53.68
56719;BME280;42597;40.636;0.278;2023-02-21T05:42:01;97702.59;;;12.41;50.15
56719;BME280;42597;40.636;0.278;2023-02-21T05:44:26;97695.91;;;11.49;51.93
56719;BME280;42597;40.636;0.278;2023-02-21T05:46:52;97685.78;;;11.70;55.69
56719;BME280;42597;40.636;0.278;2023-02-21T05:49:17;97684.94;;;13.03;54.04
56719;BME280;42597;40.636;0.278;2023-02-21T05:51:43;97683.56;;;12.53;50.54
56719;BME280;42597;40.636;0.278;2023-02-21T05:54:13;97687.78;;;12.38;49.75
56719;BME280;42597;40.636;0.278;2023-02-21T05:56:41;97694.91;;;11.90;50.28
56719;BME280;42597;40.636;0.278;2023-02-21T05:59:07;97695.59;;;11.63;51.23
56719;BME280;42597;40.636;0.278;2023-02-21T06:01:33;97691.38;;;11.28;50.90
56719;BME280;42597;40.636;0.278;2023-02-21T06:03:59;97690.97;;;11.88;50.63
56719;BME280;42597;40.636;0.278;2023-02-21T06:06:24;97693.41;;;11.31;49.69
56719;BME280;42597;40.636;0.278;2023-02-21T06:08:50;97699.75;;;11.48;51.42
56719;BME280;42597;40.636;0.278;2023-02-21T06:11:22;97691.28;;;11.37;50.45
56719;BME280;42597;40.636;0.278;2023-02-21T06:13:52;97686.31;;;11.64;50.16
56719;BME280;42597;40.636;0.278;2023-02-21T06:16:18;97690.94;;;11.39;51.17
56719;BME280;42597;40.636;0.278;2023-02-21T06:18:44;97692.72;;;11.10;50.76
56719;BME280;42597;40.636;0.278;2023-02-21T06:21:10;97683.91;;;11.13;52.41
56719;BME280;42597;40.636;0.278;2023-02-21T06:23:35;97691.09;;;10.97;51.00
56719;BME280;42597;40.636;0.278;2023-02-21T06:26:01;97685.84;;;11.25;50.45
56719;BME280;42597;40.636;0.278;2023-02-21T06:28:28;97687.13;;;11.52;50.06
56719;BME280;42597;40.636;0.278;2023-02-21T06:30:54;97681.66;;;11.03;50.41
56719;BME280;42597;40.636;0.278;2023-02-21T06:33:20;97689.47;;;11.41;50.27
56719;BME280;42597;40.636;0.278;2023-02-21T06:35:45;97681.44;;;11.20;49.50
56719;BME280;42597;40.636;0.278;2023-02-21T06:38:11;97676.72;;;11.42;55.97
56719;BME280;42597;40.636;0.278;2023-02-21T06:40:36;97677.81;;;12.26;51.70
56719;BME280;42597;40.636;0.278;2023-02-21T06:43:02;97662.84;;;13.83;51.79
56719;BME280;42597;40.636;0.278;2023-02-21T06:45:28;97660.53;;;13.34;49.17
56719;BME280;42597;40.636;0.278;2023-02-21T06:47:53;97662.41;;;13.02;53.39
56719;BME280;42597;40.636;0.278;2023-02-21T06:50:19;97664.25;;;12.26;47.68
56719;BME280;42597;40.636;0.278;2023-02-21T06:52:44;97671.34;;;11.91;49.03
56719;BME280;42597;40.636;0.278;2023-02-21T06:55:10;97663.22;;;11.66;52.79
56719;BME280;42597;40.636;0.278;2023-02-21T06:57:35;97676.63;;;11.99;54.73
56719;BME280;42597;40.636;0.278;2023-02-21T07:00:02;97669.84;;;12.33;49.08
56719;BME280;42597;40.636;0.278;2023-02-21T07:02:28;97671.75;;;12.05;51.22
56719;BME280;42597;40.636;0.278;2023-02-21T07:04:53;97676.75;;;11.78;49.54
56719;BME280;42597;40.636;0.278;2023-02-21T07:07:19;97682.38;;;11.73;50.47
56719;BME280;42597;40.636;0.278;2023-02-21T07:09:45;97671.25;;;13.78;52.54
56719;BME280;42597;40.636;0.278;2023-02-21T07:12:10;97667.06;;;14.36;50.14
56719;BME280;42597;40.636;0.278;2023-02-21T07:14:36;97668.78;;;14.44;49.73
56719;BME280;42597;40.636;0.278;2023-02-21T07:17:01;97666.81;;;14.60;49.42
56719;BME280;42597;40.636;0.278;2023-02-21T07:19:27;97668.50;;;13.59;45.73
56719;BME280;42597;40.636;0.278;2023-02-21T07:21:53;97677.09;;;13.29;51.96
56719;BME280;42597;40.636;0.278;2023-02-21T07:24:18;97667.72;;;14.48;49.52
56719;BME280;42597;40.636;0.278;2023-02-21T07:26:43;97670.78;;;14.66;49.15
56719;BME280;42597;40.636;0.278;2023-02-21T07:29:09;97665.34;;;13.41;47.17
56719;BME280;42597;40.636;0.278;2023-02-21T07:31:35;97665.03;;;12.83;48.89
56719;BME280;42597;40.636;0.278;2023-02-21T07:34:00;97676.94;;;11.73;48.47
56719;BME280;42597;40.636;0.278;2023-02-21T07:36:26;97684.41;;;11.52;51.82
56719;BME280;42597;40.636;0.278;2023-02-21T07:38:51;97678.19;;;11.76;48.65
56719;BME280;42597;40.636;0.278;2023-02-21T07:41:17;97677.56;;;12.59;48.85
56719;BME280;42597;40.636;0.278;2023-02-21T07:43:42;97682.75;;;12.24;47.26
56719;BME280;42597;40.636;0.278;2023-02-21T07:46:13;97681.16;;;12.35;51.00
56719;BME280;42597;40.636;0.278;2023-02-21T07:48:38;97685.28;;;12.05;48.37
56719;BME280;42597;40.636;0.278;2023-02-21T07:51:06;97686.63;;;12.79;50.75
56719;BME280;42597;40.636;0.278;2023-02-21T07:53:32;97695.91;;;12.10;48.60
56719;BME280;42597;40.636;0.278;2023-02-21T07:55:57;97693.88;;;12.47;48.90
56719;BME280;42597;40.636;0.278;2023-02-21T07:58:23;97689.28;;;12.92;48.26
56719;BME280;42597;40.636;0.278;2023-02-21T08:00:49;97698.81;;;12.17;45.60
56719;BME280;42597;40.636;0.278;2023-02-21T08:03:15;97689.28;;;12.92;51.18
56719;BME280;42597;40.636;0.278;2023-02-21T08:05:40;97685.44;;;12.37;50.59
56719;BME280;42597;40.636;0.278;2023-02-21T08:08:07;97682.50;;;13.61;50.89
56719;BME280;42597;40.636;0.278;2023-02-21T08:10:34;97695.81;;;12.75;46.43
56719;BME280;42597;40.636;0.278;2023-02-21T08:12:59;97697.47;;;12.79;50.69
56719;BME280;42597;40.636;0.278;2023-02-21T08:15:25;97696.84;;;12.30;48.74
56719;BME280;42597;40.636;0.278;2023-02-21T08:17:51;97698.06;;;11.92;49.17
56719;BME280;42597;40.636;0.278;2023-02-21T08:20:17;97701.09;;;11.78;48.49
56719;BME280;42597;40.636;0.278;2023-02-21T08:22:42;97695.50;;;12.64;52.41
56719;BME280;42597;40.636;0.278;2023-02-21T08:25:13;97700.41;;;11.94;46.94
56719;BME280;42597;40.636;0.278;2023-02-21T08:27:40;97695.41;;;12.60;47.73
56719;BME280;42597;40.636;0.278;2023-02-21T08:30:07;97690.72;;;12.73;50.01
56719;BME280;42597;40.636;0.278;2023-02-21T08:32:34;97696.28;;;12.65;47.77
56719;BME280;42597;40.636;0.278;2023-02-21T08:35:00;97699.59;;;12.18;48.96
56719;BME280;42597;40.636;0.278;2023-02-21T08:37:26;97695.19;;;12.53;50.67
56719;BME280;42597;40.636;0.278;2023-02-21T08:39:57;97694.75;;;12.23;49.79
56719;BME280;42597;40.636;0.278;2023-02-21T08:42:23;97690.69;;;12.05;50.91
56719;BME280;42597;40.636;0.278;2023-02-21T08:44:49;97691.84;;;12.44;51.59
56719;BME280;42597;40.636;0.278;2023-02-21T08:47:15;97693.31;;;12.42;50.29
56719;BME280;42597;40.636;0.278;2023-02-21T08:49:45;97689.75;;;12.25;51.06
56719;BME280;42597;40.636;0.278;2023-02-21T08:52:13;97692.09;;;11.99;51.92
56719;BME280;42597;40.636;0.278;2023-02-21T08:54:39;97686.84;;;12.06;52.04
56719;BME280;42597;40.636;0.278;2023-02-21T08:57:05;97686.84;;;12.06;52.16
56719;BME280;42597;40.636;0.278;2023-02-21T08:59:30;97675.47;;;12.13;52.07
56719;BME280;42597;40.636;0.278;2023-02-21T09:01:58;97678.91;;;12.25;50.67
56719;BME280;42597;40.636;0.278;2023-02-21T09:04:24;97678.34;;;12.32;50.65
56719;BME280;42597;40.636;0.278;2023-02-21T09:06:52;97676.66;;;12.27;51.11
56719;BME280;42597;40.636;0.278;2023-02-21T09:09:18;97672.25;;;12.35;52.07
56719;BME280;42597;40.636;0.278;2023-02-21T09:11:45;97665.22;;;12.34;50.10
56719;BME280;42597;40.636;0.278;2023-02-21T09:14:13;97669.91;;;12.49;48.32
56719;BME280;42597;40.636;0.278;2023-02-21T09:16:39;97670.22;;;12.60;46.90
56719;BME280;42597;40.636;0.278;2023-02-21T09:19:04;97678.44;;;12.64;47.31
56719;BME280;42597;40.636;0.278;2023-02-21T09:21:32;97670.22;;;12.60;45.90
56719;BME280;42597;40.636;0.278;2023-02-21T09:23:58;97674.44;;;12.73;45.46
56719;BME280;42597;40.636;0.278;2023-02-21T09:26:24;97671.78;;;12.61;46.26
56719;BME280;42597;40.636;0.278;2023-02-21T09:28:51;97673.50;;;12.81;45.68
56719;BME280;42597;40.636;0.278;2023-02-21T09:31:17;97668.78;;;12.78;44.91
56719;BME280;42597;40.636;0.278;2023-02-21T09:33:44;97663.09;;;12.83;44.65
56719;BME280;42597;40.636;0.278;2023-02-21T09:36:10;97662.06;;;12.88;44.87
56719;BME280;42597;40.636;0.278;2023-02-21T09:38:36;97667.69;;;12.95;44.87
56719;BME280;42597;40.636;0.278;2023-02-21T09:41:06;97672.47;;;13.02;44.00
56719;BME280;42597;40.636;0.278;2023-02-21T09:43:42;97672.94;;;13.20;44.69
56719;BME280;42597;40.636;0.278;2023-02-21T09:46:13;97674.22;;;13.10;44.33
56719;BME280;42597;40.636;0.278;2023-02-21T09:48:42;97653.69;;;13.09;43.91
56719;BME280;42597;40.636;0.278;2023-02-21T09:51:09;97656.78;;;13.23;44.79
56719;BME280;42597;40.636;0.278;2023-02-21T09:53:38;97655.78;;;13.16;44.07
56719;BME280;42597;40.636;0.278;2023-02-21T09:56:32;97664.94;;;13.23;44.03
56719;BME280;42597;40.636;0.278;2023-02-21T09:58:59;97658.69;;;13.39;44.59
56719;BME280;42597;40.636;0.278;2023-02-21T10:10:06;97656.59;;;13.48;45.54
56719;BME280;42597;40.636;0.278;2023-02-21T10:12:43;97653.59;;;13.53;45.27
56719;BME280;42597;40.636;0.278;2023-02-21T10:17:42;97644.22;;;13.66;45.23
56719;BME280;42597;40.636;0.278;2023-02-21T10:20:19;97645.34;;;13.65;44.60
56719;BME280;42597;40.636;0.278;2023-02-21T10:22:46;97650.97;;;13.72;45.46
56719;BME280;42597;40.636;0.278;2023-02-21T10:25:28;97647.75;;;13.86;45.42
56719;BME280;42597;40.636;0.278;2023-02-21T10:27:56;97648.63;;;13.90;45.24
56719;BME280;42597;40.636;0.278;2023-02-21T10:30:41;97647.31;;;14.00;45.63
56719;BME280;42597;40.636;0.278;2023-02-21T10:33:07;97651.13;;;13.99;45.85
56719;BME280;42597;40.636;0.278;2023-02-21T10:35:34;97647.00;;;14.05;45.60
56719;BME280;42597;40.636;0.278;2023-02-21T10:38:03;97663.31;;;14.05;44.00
56719;BME280;42597;40.636;0.278;2023-02-21T10:40:44;97655.41;;;14.16;45.21
56719;BME280;42597;40.636;0.278;2023-02-21T10:48:27;97657.63;;;14.29;44.84
56719;BME280;42597;40.636;0.278;2023-02-21T10:51:15;97662.28;;;14.29;44.13
56719;BME280;42597;40.636;0.278;2023-02-21T10:53:45;97659.78;;;14.40;44.49
56719;BME280;42597;40.636;0.278;2023-02-21T10:58:55;97663.19;;;14.37;45.08
56719;BME280;42597;40.636;0.278;2023-02-21T11:04:36;97650.19;;;14.46;44.95
56719;BME280;42597;40.636;0.278;2023-02-21T11:06:38;97654.19;;;14.32;45.54
56719;BME280;42597;40.636;0.278;2023-02-21T11:11:59;97651.19;;;14.38;48.59
56719;BME280;42597;40.636;0.278;2023-02-21T11:14:25;97652.97;;;14.30;48.81
56719;BME280;42597;40.636;0.278;2023-02-21T11:19:42;97647.59;;;14.33;53.48
56719;BME280;42597;40.636;0.278;2023-02-21T11:22:08;97648.78;;;14.52;53.01
56719;BME280;42597;40.636;0.278;2023-02-21T11:24:48;97665.00;;;14.29;57.68
56719;BME280;42597;40.636;0.278;2023-02-21T11:27:15;97651.81;;;14.12;59.12
56719;BME280;42597;40.636;0.278;2023-02-21T11:29:43;97643.06;;;14.02;60.40
56719;BME280;42597;40.636;0.278;2023-02-21T11:32:19;97638.41;;;14.03;60.36
56719;BME280;42597;40.636;0.278;2023-02-21T11:34:48;97641.75;;;14.12;60.75
56719;BME280;42597;40.636;0.278;2023-02-21T11:37:14;97641.25;;;13.91;62.57
56719;BME280;42597;40.636;0.278;2023-02-21T11:39:40;97634.66;;;14.07;62.72
56719;BME280;42597;40.636;0.278;2023-02-21T11:42:29;97627.34;;;13.92;65.11
56719;BME280;42597;40.636;0.278;2023-02-21T11:45:23;97630.41;;;14.10;64.83
56719;BME280;42597;40.636;0.278;2023-02-21T11:48:00;97632.72;;;14.08;66.33
56719;BME280;42597;40.636;0.278;2023-02-21T11:50:33;97635.28;;;14.01;67.93
56719;BME280;42597;40.636;0.278;2023-02-21T11:55:38;97627.16;;;14.40;64.58
56719;BME280;42597;40.636;0.278;2023-02-21T11:58:26;97624.44;;;14.59;56.98
56719;BME280;42597;40.636;0.278;2023-02-21T12:01:02;97626.44;;;14.04;70.58
56719;BME280;42597;40.636;0.278;2023-02-21T12:12:04;97604.25;;;14.02;73.36
56719;BME280;42597;40.636;0.278;2023-02-21T12:26:50;97587.56;;;14.42;69.79
56719;BME280;42597;40.636;0.278;2023-02-21T12:37:52;97571.78;;;14.48;70.95
56719;BME280;42597;40.636;0.278;2023-02-21T12:40:48;97571.28;;;14.23;75.65
56719;BME280;42597;40.636;0.278;2023-02-21T12:46:26;97560.94;;;14.09;77.42
56719;BME280;42597;40.636;0.278;2023-02-21T12:51:25;97549.16;;;14.44;75.32
56719;BME280;42597;40.636;0.278;2023-02-21T12:53:54;97549.09;;;14.40;76.34
56719;BME280;42597;40.636;0.278;2023-02-21T12:59:20;97549.03;;;14.56;73.21
56719;BME280;42597;40.636;0.278;2023-02-21T13:01:58;97552.47;;;14.53;74.74
56719;BME280;42597;40.636;0.278;2023-02-21T13:04:46;97551.00;;;14.59;73.89
56719;BME280;42597;40.636;0.278;2023-02-21T13:07:17;97541.72;;;14.60;72.61
56719;BME280;42597;40.636;0.278;2023-02-21T13:10:13;97533.88;;;14.36;77.71
56719;BME280;42597;40.636;0.278;2023-02-21T13:15:27;97517.13;;;14.53;70.84
56719;BME280;42597;40.636;0.278;2023-02-21T13:18:25;97505.09;;;14.54;77.81
56719;BME280;42597;40.636;0.278;2023-02-21T13:20:57;97502.06;;;14.59;75.95
56719;BME280;42597;40.636;0.278;2023-02-21T13:29:50;97477.75;;;14.47;79.16
56719;BME280;42597;40.636;0.278;2023-02-21T13:32:18;97471.75;;;14.57;74.04
56719;BME280;42597;40.636;0.278;2023-02-21T13:34:58;97465.25;;;14.65;75.12
56719;BME280;42597;40.636;0.278;2023-02-21T13:37:27;97455.66;;;14.71;72.23
56719;BME280;42597;40.636;0.278;2023-02-21T13:40:21;97441.50;;;14.62;77.27
56719;BME280;42597;40.636;0.278;2023-02-21T13:43:01;97437.19;;;14.84;66.73
56719;BME280;42597;40.636;0.278;2023-02-21T13:45:28;97442.19;;;14.55;75.90
56719;BME280;42597;40.636;0.278;2023-02-21T13:55:33;97431.06;;;14.64;69.78
56719;BME280;42597;40.636;0.278;2023-02-21T14:08:20;97417.22;;;14.50;65.00
56719;BME280;42597;40.636;0.278;2023-02-21T14:10:51;97408.50;;;14.90;58.58
56719;BME280;42597;40.636;0.278;2023-02-21T14:19:05;97399.78;;;15.04;56.40
56719;BME280;42597;40.636;0.278;2023-02-21T14:21:42;97405.44;;;14.92;60.64
56719;BME280;42597;40.636;0.278;2023-02-21T14:29:43;97397.56;;;14.87;59.77
56719;BME280;42597;40.636;0.278;2023-02-21T14:37:21;97369.84;;;15.04;57.12
56719;BME280;42597;40.636;0.278;2023-02-21T14:39:51;97382.25;;;15.01;58.21
56719;BME280;42597;40.636;0.278;2023-02-21T15:01:55;97374.38;;;14.66;62.55
56719;BME280;42597;40.636;0.278;2023-02-21T15:04:32;97377.81;;;14.63;65.24
56719;BME280;42597;40.636;0.278;2023-02-21T15:07:23;97366.06;;;14.55;65.52
56719;BME280;42597;40.636;0.278;2023-02-21T15:10:11;97343.03;;;14.76;61.86
56719;BME280;42597;40.636;0.278;2023-02-21T15:12:56;97356.81;;;14.60;65.36
56719;BME280;42597;40.636;0.278;2023-02-21T15:15:28;97349.06;;;14.62;66.05
56719;BME280;42597;40.636;0.278;2023-02-21T15:18:11;97350.72;;;14.70;65.07
56719;BME280;42597;40.636;0.278;2023-02-21T15:20:41;97348.66;;;14.60;66.02
56719;BME280;42597;40.636;0.278;2023-02-21T15:23:15;97342.06;;;14.61;66.72
56719;BME280;42597;40.636;0.278;2023-02-21T15:25:44;97342.44;;;14.37;70.76
56719;BME280;42597;40.636;0.278;2023-02-21T15:28:35;97342.56;;;14.44;76.24
56719;BME280;42597;40.636;0.278;2023-02-21T15:31:07;97339.00;;;14.66;73.67
56719;BME280;42597;40.636;0.278;2023-02-21T15:33:41;97333.84;;;14.35;80.28
56719;BME280;42597;40.636;0.278;2023-02-21T15:36:15;97321.53;;;14.41;80.91
56719;BME280;42597;40.636;0.278;2023-02-21T15:38:48;97322.25;;;14.38;80.87
56719;BME280;42597;40.636;0.278;2023-02-21T15:41:42;97327.63;;;14.34;82.65
56719;BME280;42597;40.636;0.278;2023-02-21T15:51:49;97306.44;;;14.70;81.12
56719;BME280;42597;40.636;0.278;2023-02-21T15:54:34;97308.47;;;14.76;81.22
56719;BME280;42597;40.636;0.278;2023-02-21T15:59:30;97307.03;;;14.56;84.30
56719;BME280;42597;40.636;0.278;2023-02-21T16:02:23;97303.16;;;14.57;84.11
56719;BME280;42597;40.636;0.278;2023-02-21T16:04:51;97287.72;;;14.65;84.09
56719;BME280;42597;40.636;0.278;2023-02-21T16:07:21;97291.75;;;14.78;83.13
56719;BME280;42597;40.636;0.278;2023-02-21T16:09:55;97295.59;;;14.73;84.12
56719;BME280;42597;40.636;0.278;2023-02-21T16:12:35;97285.41;;;14.67;85.53
56719;BME280;42597;40.636;0.278;2023-02-21T16:15:27;97282.59;;;14.90;81.67
56719;BME280;42597;40.636;0.278;2023-02-21T16:17:58;97281.03;;;14.89;84.45
56719;BME280;42597;40.636;0.278;2023-02-21T16:20:39;97273.16;;;14.80;85.45
56719;BME280;42597;40.636;0.278;2023-02-21T16:28:42;97276.66;;;14.80;85.95